Latest Weather Observations for Bowen Airport AWS

IDQ60801

Issued at 9:32 am EST Sunday 22 January 2017 (issued every 30 minutes, with the page automatically refreshed every 10 minutes)

About weather observations | Map of weather stations | Latest weather observations for QLD | Other Formats
Station Details ID: 033327 Name: BOWEN AIRPORT AWS Lat: -20.02 Lon: 148.21 Height: 5.9 m
Data from the previous 72 hours. | See also: Recent months at Bowen Airport AWS
Date/Time
EST
Temp
°C
App
Temp
°C
Dew
Point
°C
Rel
Hum
%
Delta-T
°C
Wind Press
QNH
hPa
Press
MSL
hPa
Rain since
9am
mm
Dir  Spd
km/h
Gust
km/h
Spd
kts
Gust
kts
22/09:30am 29.4 33.3 24.3 74 3.5 SE 11 13 6 7 1010.6 1010.5 0.0
22/09:00am 29.6 33.9 24.2 73 3.8 SE 9 13 5 7 1010.5 1010.4 0.0
22/08:30am 29.0 33.9 24.3 76 3.3 SE 6 9 3 5 1010.5 1010.4 0.0
22/08:00am 27.9 32.0 23.3 76 3.1 SE 7 9 4 5 1010.4 1010.3 0.0
22/07:30am 26.8 31.2 23.5 82 2.3 SSE 6 7 3 4 1010.3 1010.2 0.0
22/07:00am 24.7 29.3 23.8 95 0.6 SW 6 6 3 3 1010.1 1010.0 0.0
22/06:30am 23.4 27.4 22.7 96 0.5 SW 6 7 3 4 1009.8 1009.7 0.0
22/06:00am 23.0 26.7 22.2 95 0.5 WSW 6 6 3 3 1009.2 1009.1 0.0
22/05:30am 23.2 26.8 22.4 95 0.5 SW 7 9 4 5 1008.7 1008.6 0.0
22/05:00am 23.3 27.4 22.3 94 0.7 SW 4 6 2 3 1008.3 1008.2 0.0
22/04:30am 23.4 27.3 22.6 95 0.5 SW 6 7 3 4 1008.0 1007.9 0.0
22/04:00am 23.5 26.9 22.7 95 0.5 SW 9 11 5 6 1007.8 1007.7 0.0
22/03:30am 23.4 27.2 22.4 94 0.7 WSW 6 6 3 3 1007.8 1007.7 0.0
22/03:00am 23.8 27.7 23.0 95 0.5 SW 7 9 4 5 1008.1 1008.0 0.0
22/02:30am 23.5 27.5 22.7 95 0.5 N 6 6 3 3 1008.3 1008.2 0.0
22/02:00am 23.3 27.3 22.1 93 0.8 N 4 4 2 2 1008.5 1008.4 0.0
22/01:30am 24.0 29.2 22.8 93 0.8 CALM 0 0 0 0 1008.7 1008.6 0.0
22/01:00am 23.7 28.5 22.1 91 1.1 CALM 0 0 0 0 1009.0 1008.9 0.0
22/12:30am 24.3 29.4 22.7 91 1.1 CALM 0 0 0 0 1009.1 1009.0 0.0
22/12:00am 24.9 30.3 23.3 91 1.1 CALM 0 0 0 0 1009.4 1009.3 0.0
 
Date/Time
EST
Temp
°C
App
Temp
°C
Dew
Point
°C
Rel
Hum
%
Delta-T
°C
Wind Press
QNH
hPa
Press
MSL
hPa
Rain since
9am
mm
Dir  Spd
km/h
Gust
km/h
Spd
kts
Gust
kts
21/11:30pm 24.9 30.2 23.0 89 1.3 CALM 0 2 0 1 1009.6 1009.5 0.0
21/11:00pm 25.0 30.2 22.9 88 1.4 CALM 0 0 0 0 1009.8 1009.7 0.0
21/10:30pm 25.6 31.3 23.7 89 1.3 CALM 0 0 0 0 1009.8 1009.7 0.0
21/10:00pm 25.6 31.0 23.3 87 1.6 CALM 0 0 0 0 1009.8 1009.7 0.0
21/09:30pm 26.2 30.8 23.1 83 2.1 N 4 6 2 3 1009.3 1009.2 0.0
21/09:00pm 27.3 32.2 23.7 81 2.5 N 4 6 2 3 1008.8 1008.7 0.0
21/08:30pm 27.4 31.9 23.6 80 2.6 NNE 6 7 3 4 1008.2 1008.1 0.0
21/08:00pm 27.5 31.8 23.3 78 2.9 NNE 6 7 3 4 1007.8 1007.7 0.0
21/07:30pm 27.8 32.2 23.4 77 3.0 NNE 6 9 3 5 1007.4 1007.3 0.0
21/07:00pm 28.5 32.9 23.4 74 3.5 NNE 6 9 3 5 1007.1 1007.0 0.0
21/06:30pm 29.2 33.1 22.9 69 4.3 NNE 7 11 4 6 1006.9 1006.8 0.0
21/06:00pm 29.8 33.0 23.0 67 4.7 NNE 11 17 6 9 1006.3 1006.2 0.0
21/05:30pm 30.2 32.9 22.9 65 5.0 NNE 13 19 7 10 1006.1 1006.0 0.0
21/05:00pm 30.3 32.4 22.5 63 5.3 NNE 15 20 8 11 1006.0 1005.9 0.0
21/04:30pm 30.7 33.4 22.8 62 5.4 N 13 20 7 11 1005.9 1005.8 0.0
21/04:00pm 31.3 34.0 22.9 61 5.8 NNE 13 22 7 12 1005.9 1005.8 0.0
21/03:30pm 31.3 33.7 22.9 61 5.8 NNE 15 20 8 11 1006.2 1006.1 0.0
21/03:00pm 31.0 33.0 22.9 62 5.6 NNE 17 24 9 13 1006.6 1006.5 0.0
21/02:30pm 31.4 33.9 23.2 61 5.6 NNE 15 20 8 11 1006.8 1006.7 0.0
21/02:00pm 31.3 33.5 22.6 60 6.0 N 15 20 8 11 1007.1 1007.0 0.0
21/01:30pm 31.7 34.1 23.0 60 6.0 NNE 15 22 8 12 1007.5 1007.4 0.0
21/01:00pm 31.6 34.3 23.4 61 5.7 NNE 15 22 8 12 1007.8 1007.7 0.0
21/12:30pm 30.7 32.9 22.6 62 5.5 NNE 15 20 8 11 1008.0 1007.9 0.0
21/12:00pm 30.6 33.4 23.0 64 5.2 NNE 13 20 7 11 1008.3 1008.2 0.0
21/11:30am 30.2 33.3 22.9 65 5.0 NNE 11 17 6 9 1008.5 1008.4 0.0
21/11:00am 31.3 35.5 23.4 63 5.5 NE 7 17 4 9 1008.8 1008.7 0.0
21/10:30am 30.9 34.6 22.5 61 5.7 NE 7 9 4 5 1009.2 1009.1 0.0
21/10:00am 29.7 32.5 21.6 61 5.4 E 9 11 5 6 1009.4 1009.3 0.0
21/09:30am 30.2 33.9 22.6 63 5.2 ESE 7 11 4 6 1009.7 1009.6 0.0
21/09:00am 28.8 32.1 21.8 66 4.7 ESE 7 9 4 5 1009.7 1009.6 0.0
21/08:30am 28.5 32.1 22.3 69 4.2 ESE 7 9 4 5 1009.7 1009.6 0.0
21/08:00am 28.1 31.7 22.3 70 3.9 ESE 7 9 4 5 1009.5 1009.4 0.0
21/07:30am 27.0 30.7 22.2 75 3.2 SE 6 9 3 5 1009.2 1009.1 0.0
21/07:00am 24.4 28.3 22.5 89 1.3 SW 6 7 3 4 1009.2 1009.1 0.0
21/06:30am 23.3 26.9 22.1 93 0.8 WSW 6 7 3 4 1009.2 1009.1 0.0
21/06:00am 22.5 25.8 21.8 96 0.5 WSW 7 7 4 4 1008.9 1008.8 0.0
21/05:30am 22.6 26.1 21.8 95 0.5 WSW 6 7 3 4 1008.3 1008.2 0.0
21/05:00am 22.7 26.1 21.7 94 0.7 WSW 6 7 3 4 1007.9 1007.8 0.0
21/04:30am 23.0 26.6 22.0 94 0.7 WSW 6 6 3 3 1007.6 1007.5 0.0
21/04:00am 22.9 26.4 21.9 94 0.7 WSW 6 7 3 4 1007.4 1007.3 0.0
21/03:30am 23.2 26.8 22.0 93 0.8 WSW 6 7 3 4 1007.4 1007.3 0.0
21/03:00am 23.5 28.3 22.1 92 0.9 CALM 0 0 0 0 1007.4 1007.3 0.0
21/02:30am 23.7 28.6 22.3 92 0.9 CALM 0 0 0 0 1007.5 1007.4 0.0
21/02:00am 23.8 27.9 22.2 91 1.1 WSW 4 6 2 3 1007.4 1007.3 0.0
21/01:30am 23.9 27.5 22.3 91 1.1 WSW 7 9 4 5 1007.7 1007.6 0.0
21/01:00am 23.9 27.6 22.3 91 1.1 WSW 6 7 3 4 1008.1 1008.0 0.0
21/12:30am 23.9 28.0 22.3 91 1.1 NE 4 6 2 3 1008.2 1008.1 0.0
21/12:00am 24.2 29.1 22.3 89 1.3 CALM 0 0 0 0 1008.2 1008.1 0.0
 
Date/Time
EST
Temp
°C
App
Temp
°C
Dew
Point
°C
Rel
Hum
%
Delta-T
°C
Wind Press
QNH
hPa
Press
MSL
hPa
Rain since
9am
mm
Dir  Spd
km/h
Gust
km/h
Spd
kts
Gust
kts
20/11:30pm 24.6 29.5 22.3 87 1.5 CALM 0 0 0 0 1008.6 1008.5 0.0
20/11:00pm 25.3 30.1 22.2 83 2.1 CALM 0 0 0 0 1008.8 1008.7 0.0
20/10:30pm 26.0 30.3 21.9 78 2.7 NE 2 2 1 1 1009.0 1008.9 0.0
20/10:00pm 26.8 30.7 21.8 74 3.3 NE 4 6 2 3 1009.0 1008.9 0.0
20/09:30pm 26.8 30.4 22.0 75 3.2 ENE 6 7 3 4 1008.5 1008.4 0.0
20/09:00pm 27.0 30.4 22.0 74 3.4 ENE 7 9 4 5 1008.3 1008.2 0.0
20/08:30pm 27.3 30.7 22.0 73 3.6 NE 7 11 4 6 1007.8 1007.7 0.0
20/08:00pm 27.3 30.6 21.8 72 3.7 NE 7 13 4 7 1007.5 1007.4 0.0
20/07:30pm 27.6 30.6 21.9 71 3.8 NE 9 13 5 7 1007.2 1007.1 0.0
20/07:00pm 27.9 30.9 21.9 70 4.0 NE 9 13 5 7 1006.9 1006.8 0.0
20/06:30pm 28.6 30.6 21.6 66 4.7 NE 13 19 7 10 1006.8 1006.7 0.0
20/06:00pm 29.0 30.6 21.5 64 5.0 NE 15 22 8 12 1006.4 1006.3 0.0
20/05:30pm 29.5 31.2 21.7 63 5.2 NE 15 20 8 11 1006.1 1006.0 0.0
20/05:00pm 29.8 31.5 21.7 61 5.5 NNE 15 22 8 12 1005.9 1005.8 0.0
20/04:30pm 30.3 32.1 21.9 60 5.7 NNE 15 20 8 11 1005.8 1005.7 0.0
20/04:00pm 30.5 32.5 21.6 59 6.0 NNE 13 20 7 11 1005.9 1005.8 0.0
20/03:30pm 30.4 31.9 21.2 58 6.2 NNE 15 20 8 11 1006.1 1006.0 0.0
20/03:00pm 30.4 31.5 19.7 52 7.0 NNE 13 20 7 11 1006.5 1006.4 0.0
20/02:30pm 30.9 32.2 20.8 55 6.7 N 15 22 8 12 1006.7 1006.6 0.0
20/02:00pm 30.8 32.6 20.4 54 6.9 N 11 15 6 8 1007.2 1007.1 0.0
20/01:30pm 30.7 32.6 20.6 54 6.7 NNE 11 17 6 9 1007.7 1007.6 0.0
20/01:00pm 30.6 32.6 20.8 56 6.5 NNE 11 17 6 9 1008.4 1008.3 0.0
20/12:30pm 30.6 32.9 21.4 58 6.2 NNE 11 19 6 10 1008.8 1008.7 0.0
20/12:00pm 30.5 32.9 21.6 59 6.0 NNE 11 17 6 9 1008.8 1008.7 0.0
20/11:30am 30.6 33.3 21.4 58 6.2 NNE 9 15 5 8 1009.1 1009.0 0.0
20/11:00am 30.7 33.3 22.0 59 5.9 NE 11 15 6 8 1009.3 1009.2 0.0
20/10:30am 29.3 32.9 20.5 59 5.8 E 2 6 1 3 1009.6 1009.5 0.0
20/10:00am 29.4 32.7 21.4 62 5.4 SE 6 7 3 4 1009.7 1009.6 0.0
20/09:30am 29.9 33.2 21.8 62 5.5 ESE 7 11 4 6 1009.8 1009.7 0.0
20/09:00am 29.1 32.3 21.3 62 5.2 E 6 7 3 4 1009.7 1009.6 0.0
20/08:30am 28.7 33.2 22.2 68 4.4 SSW 2 6 1 3 1009.6 1009.5 0.0
20/08:00am 26.7 30.7 22.8 79 2.6 SW 6 7 3 4 1009.5 1009.4 0.0
20/07:30am 25.0 28.9 22.9 88 1.4 SW 7 9 4 5 1009.4 1009.3 0.0
20/07:00am 23.9 27.7 22.7 93 0.8 SW 7 9 4 5 1009.2 1009.1 0.0
20/06:30am 23.1 26.3 22.3 95 0.5 SW 9 11 5 6 1008.9 1008.8 0.0
20/06:00am 22.6 26.1 21.8 95 0.5 WSW 6 7 3 4 1008.6 1008.5 0.0
20/05:30am 22.6 26.4 21.6 94 0.7 SSW 4 6 2 3 1008.2 1008.1 0.0
20/05:00am 23.1 27.3 21.7 92 0.9 SSW 2 4 1 2 1007.8 1007.7 0.0
20/04:30am 23.1 26.7 22.1 94 0.7 SSW 6 6 3 3 1007.6 1007.5 0.0
20/04:00am 23.0 26.1 22.2 95 0.5 SSW 9 9 5 5 1007.3 1007.2 0.0
20/03:30am 22.8 26.1 21.8 94 0.7 SW 7 7 4 4 1007.4 1007.3 0.0
20/03:00am 23.1 26.5 21.7 92 0.9 SW 6 7 3 4 1007.7 1007.6 0.0
20/02:30am 23.8 28.6 22.1 90 1.1 CALM 0 0 0 0 1007.8 1007.7 0.0
20/02:00am 24.5 28.6 21.6 84 1.9 ENE 2 2 1 1 1007.9 1007.8 0.0
20/01:30am 25.9 29.4 21.8 78 2.7 ENE 6 7 3 4 1007.9 1007.8 0.0
20/01:00am 26.1 29.5 22.0 78 2.7 NE 7 9 4 5 1008.3 1008.2 0.0
20/12:30am 26.2 29.3 22.1 78 2.7 NE 9 13 5 7 1008.6 1008.5 0.0
20/12:00am 26.3 30.0 22.6 80 2.5 NE 7 11 4 6 1008.8 1008.7 0.0
 
Date/Time
EST
Temp
°C
App
Temp
°C
Dew
Point
°C
Rel
Hum
%
Delta-T
°C
Wind Press
QNH
hPa
Press
MSL
hPa
Rain since
9am
mm
Dir  Spd
km/h
Gust
km/h
Spd
kts
Gust
kts
19/11:30pm 26.4 30.6 23.1 82 2.2 NE 6 7 3 4 1009.0 1008.9 0.0
19/11:00pm 26.5 30.9 22.8 80 2.5 NNE 4 7 2 4 1009.0 1008.9 0.0
19/10:30pm 26.6 30.6 23.1 81 2.4 NNE 7 11 4 6 1009.1 1009.0 0.0
19/10:00pm 26.6 30.6 23.1 81 2.4 NE 7 9 4 5 1008.9 1008.8 0.0
19/09:30pm 26.5 30.3 22.8 80 2.5 NNE 7 9 4 5 1008.7 1008.6 0.0
19/09:00pm 26.1 30.6 23.0 83 2.1 N 4 6 2 3 1008.3 1008.2 0.0
19/08:30pm 26.3 30.3 22.8 81 2.4 N 6 9 3 5 1008.0 1007.9 0.0
19/08:00pm 27.2 31.0 22.8 77 3.0 NNE 7 13 4 7 1007.7 1007.6 0.0
19/07:30pm 27.2 30.9 22.6 76 3.1 NNE 7 9 4 5 1007.4 1007.3 0.0
19/07:00pm 27.6 30.9 22.5 74 3.5 NNE 9 13 5 7 1007.1 1007.0 0.0
19/06:30pm 28.4 32.0 22.4 70 4.1 N 7 13 4 7 1006.9 1006.8 0.0
19/06:00pm 29.2 32.1 22.4 66 4.6 N 11 15 6 8 1006.7 1006.6 0.0
19/05:30pm 29.6 32.3 22.1 64 5.1 NNE 11 17 6 9 1006.6 1006.5 0.0
19/05:00pm 30.1 32.5 21.5 60 5.8 NNE 11 19 6 10 1006.5 1006.4 0.0
19/04:30pm 30.1 31.7 21.5 60 5.8 N 15 20 8 11 1006.5 1006.4 0.0
19/04:00pm 31.0 32.8 21.8 58 6.2 NNE 15 20 8 11 1006.5 1006.4 0.0
19/03:30pm 31.1 32.4 20.1 52 7.3 NNE 13 17 7 9 1006.7 1006.6 0.0
19/03:00pm 31.2 32.5 20.8 54 7.0 NNE 15 22 8 12 1007.0 1006.9 0.0
19/02:30pm 30.9 32.3 21.1 56 6.6 NNE 15 20 8 11 1007.3 1007.2 0.0
19/02:00pm 30.9 33.0 21.7 58 6.2 N 13 17 7 9 1007.8 1007.7 0.0
19/01:30pm 31.0 32.9 22.0 58 6.1 NNE 15 20 8 11 1008.3 1008.2 0.0
19/01:00pm 31.3 33.7 22.3 58 6.1 NNE 13 19 7 10 1008.9 1008.8 0.0
19/12:30pm 31.5 33.9 22.2 57 6.3 NE 13 17 7 9 1009.3 1009.2 0.0
19/12:00pm 30.6 33.3 22.2 61 5.7 N 11 17 6 9 1009.4 1009.3 0.0
19/11:30am 31.3 35.3 23.1 61 5.6 NE 7 15 4 8 1009.7 1009.6 0.0
19/11:00am 31.2 34.2 20.8 54 6.9 SW 6 11 3 6 1010.1 1010.0 0.0
19/10:30am 30.7 33.7 20.9 56 6.5 SE 6 9 3 5 1010.5 1010.4 0.0
19/10:00am 30.1 32.7 20.1 55 6.6 SSE 6 9 3 5 1010.8 1010.7 0.0

Other Formats:

Comma delimited format used in spreadsheet applications
http://www.bom.gov.au/fwo/IDQ60801/IDQ60801.94383.axf

JavaScript Object Notation format (JSON) in row-major order
http://www.bom.gov.au/fwo/IDQ60801/IDQ60801.94383.json